Flight Track Log - Related Links

Times and Time Zones

All times are in EDT time to prevent confusion due to time zone crossing. See the N911PJ flight status page for this flight to view local times or setup timezone preferences in your user account.

Time Position Orientation Groundspeed Altitude Reporting Facility
EDT Latitude Longitude Course Direction KTS MPH feet Rate Location/Type
Sun 01:29:14 PM 46.9319 -122.8764 99° East 179 206 2,600  Level Seattle Center
Sun 01:30:09 PM 46.9264 -122.8278 99° East 152 175 4,100 1,700 Climbing Seattle Center
Sun 01:31:14 PM 46.8953 -122.7619 125° Southeast 168 193 6,000 1,762 Climbing Seattle Center
Sun 01:32:15 PM 46.8650 -122.7017 126° Southeast 182 209 7,800 1,377 Climbing Seattle Center
Sun 01:33:16 PM 46.8339 -122.6356 125° Southeast 196 226 8,800 1,033 Climbing Seattle Center
Sun 01:34:17 PM 46.7925 -122.5617 129° Southeast 231 266 9,900 1,426 Climbing Seattle Center
Sun 01:35:18 PM 46.7689 -122.4797 113° Southeast 203 234 11,700 1,366 Climbing Seattle Center
Sun 01:36:20 PM 46.7539 -122.3944 104° East 215 247 12,700 634 Climbing Seattle Center
Sun 01:37:21 PM 46.7333 -122.2997 108° East 235 270 13,000 787 Climbing Seattle Center
Sun 01:38:22 PM 46.7144 -122.2006 105° East 254 292 14,300 1,230 Climbing Seattle Center
Sun 01:39:23 PM 46.7033 -122.1114 100° East 231 266 15,500 1,122 Climbing Seattle Center
Sun 01:40:25 PM 46.6942 -122.0189 98° East 233 268 16,600 976 Climbing Seattle Center
Sun 01:41:26 PM 46.6917 -121.9258 92° East 234 269 17,500 836 Climbing Seattle Center
Sun 01:42:27 PM 46.6997 -121.8308 83° East 235 270 18,300 829 Climbing Seattle Center
Sun 01:43:29 PM 46.6931 -121.7325 96° East 243 280 19,200 927 Climbing Seattle Center
Sun 01:44:30 PM 46.6892 -121.6156 93° East 245 282 20,200 885 Climbing Seattle Center
Sun 01:45:31 PM 46.6844 -121.5167 94° East 253 291 21,000 836 Climbing Seattle Center
Sun 01:46:32 PM 46.6792 -121.4147 94° East 254 292 21,900 829 Climbing Seattle Center
Sun 01:47:34 PM 46.6731 -121.3100 95° East 258 297 22,700 488 Climbing Seattle Center
Sun 01:48:35 PM 46.6656 -121.1972 95° East 279 321 22,900 98 Climbing Seattle Center
Sun 01:49:36 PM 46.6572 -121.0736 96° East 300 345 22,900  Level Seattle Center
Sun 01:50:37 PM 46.6506 -120.9447 94° East 317 365 22,900  Level Seattle Center
Sun 01:51:39 PM 46.6408 -120.8156 96° East 321 369 22,900  Level Seattle Center
Sun 01:52:40 PM 46.6311 -120.6592 95° East 324 373 22,900 443 Level Seattle Center
Sun 01:53:41 PM 46.6228 -120.5292 95° East 323 372 23,800 1,082 Climbing Seattle Center
Sun 01:54:42 PM 46.6144 -120.4244 97° East 272 313 25,100 927 Climbing Seattle Center
Sun 01:55:44 PM 46.6072 -120.3133 95° East 272 313 25,700 585 Climbing Seattle Center
Sun 01:56:45 PM 46.6000 -120.2006 95° East 277 319 26,300 590 Climbing Seattle Center
Sun 01:57:46 PM 46.5928 -120.0864 95° East 281 323 26,900 295 Climbing Seattle Center
Sun 01:58:47 PM 46.5850 -119.9686 95° East 292 336 26,900  Level Seattle Center
Sun 01:59:50 PM 46.5753 -119.8444 96° East 308 354 26,900  Level Seattle Center
Sun 02:00:52 PM 46.5642 -119.6917 96° East 316 364 26,900  Level Seattle Center
Sun 02:01:53 PM 46.5556 -119.5636 96° East 318 366 26,900  Level Seattle Center
Sun 02:02:54 PM 46.5444 -119.4347 97° East 321 369 26,900  Level Seattle Center
Sun 02:03:56 PM 46.5350 -119.3033 96° East 326 375 26,900  Level Seattle Center
Sun 02:04:57 PM 46.5242 -119.1739 97° East 324 373 26,900  Level Seattle Center
Sun 02:05:58 PM 46.5142 -119.0433 96° East 325 374 26,900  Level Seattle Center
Sun 02:07:00 PM 46.5042 -118.9144 96° East 323 372 26,900  Level Seattle Center
Sun 02:08:01 PM 46.4939 -118.7747 96° East 321 369 26,900  Level Seattle Center
Sun 02:09:02 PM 46.4833 -118.6442 97° East 326 375 26,900  Level Seattle Center
Sun 02:10:03 PM 46.4722 -118.5153 97° East 325 374 26,900  Level Seattle Center
Sun 02:11:05 PM 46.4631 -118.3844 96° East 327 376 26,900  Level Seattle Center
Sun 02:12:06 PM 46.4508 -118.2558 98° East 326 375 26,900  Level Seattle Center
Sun 02:13:07 PM 46.4394 -118.1272 97° East 324 373 26,900  Level Seattle Center
Sun 02:14:08 PM 46.4289 -117.9989 97° East 323 372 26,900  Level Seattle Center
Sun 02:15:10 PM 46.4144 -117.8456 98° East 322 371 26,900  Level Seattle Center
Sun 02:16:11 PM 46.4031 -117.7167 97° East 323 372 26,900  Level Seattle Center
Sun 02:17:12 PM 46.3911 -117.5900 98° East 320 368 26,900  Level Seattle Center
Sun 02:18:13 PM 46.3794 -117.4597 97° East 325 374 26,900  Level Seattle Center
Sun 02:19:15 PM 46.3661 -117.3314 99° East 325 374 26,900  Level Seattle Center
Sun 02:20:16 PM 46.3544 -117.2044 98° East 322 371 26,900  Level Seattle Center
Sun 02:21:17 PM 46.3417 -117.0761 98° East 323 372 26,900  Level Seattle Center
Sun 02:22:18 PM 46.3286 -116.9475 98° East 324 373 26,900  Level Seattle Center
Sun 02:23:20 PM 46.3164 -116.8200 98° East 323 372 26,900  Level Seattle Center
Sun 02:24:21 PM 46.3006 -116.6667 98° East 322 371 26,900  Level Seattle Center
Sun 02:25:22 PM 46.2878 -116.5339 98° East 331 381 26,900  Level Seattle Center
Sun 02:26:24 PM 46.2744 -116.4042 98° East 330 380 26,900  Level Seattle Center
Sun 02:27:25 PM 46.2619 -116.2764 98° East 324 373 26,900  Level Seattle Center
Sun 02:28:26 PM 46.2478 -116.1494 99° East 323 372 26,900  Level Seattle Center
Sun 02:29:27 PM 46.2347 -116.0211 98° East 323 372 26,900  Level Seattle Center
Sun 02:30:29 PM 46.2203 -115.8936 99° East 323 372 26,900  Level Seattle Center
Sun 02:31:12 PM 46.2097 -115.7917 98° East 323 372 26,900  Level Salt Lake Center
Sun 02:32:14 PM 46.1956 -115.6650 99° East 322 371 26,900  Level Salt Lake Center
Sun 02:33:16 PM 46.1817 -115.5378 99° East 322 371 26,900  Level Salt Lake Center
Sun 02:34:18 PM 46.1669 -115.4131 100° East 318 366 26,900  Level Salt Lake Center
Sun 02:35:20 PM 46.1506 -115.2592 99° East 323 372 26,900  Level Salt Lake Center
Sun 02:36:22 PM 46.1353 -115.1292 100° East 320 368 26,900  Level Salt Lake Center
Sun 02:37:24 PM 46.1211 -115.0022 99° East 322 371 26,900  Level Salt Lake Center
Sun 02:38:26 PM 46.1058 -114.8739 100° East 325 374 26,900  Level Salt Lake Center
Sun 02:39:28 PM 46.0900 -114.7417 100° East 321 369 26,900  Level Salt Lake Center
Sun 02:40:30 PM 46.0733 -114.5983 99° East 324 373 26,900  Level Salt Lake Center
Sun 02:41:32 PM 46.0581 -114.4744 100° East 327 376 26,900  Level Salt Lake Center
Sun 02:42:34 PM 46.0422 -114.3419 100° East 320 368 26,900  Level Salt Lake Center
Sun 02:43:36 PM 46.0258 -114.2125 100° East 326 375 26,900  Level Salt Lake Center
Sun 02:44:38 PM 46.0103 -114.0856 100° East 326 375 26,900  Level Salt Lake Center
Sun 02:45:40 PM 45.9950 -113.9581 100° East 326 375 26,900  Level Salt Lake Center
Sun 02:46:42 PM 45.9786 -113.8319 101° East 323 372 26,900  Level Salt Lake Center
Sun 02:47:44 PM 45.9614 -113.7039 101° East 326 375 26,900  Level Salt Lake Center
Sun 02:48:46 PM 45.9439 -113.5689 101° East 326 375 26,900  Level Salt Lake Center
Sun 02:49:48 PM 45.9231 -113.4161 101° East 325 374 26,900  Level Salt Lake Center
Sun 02:50:50 PM 45.9075 -113.2886 100° East 326 375 26,900  Level Salt Lake Center
Sun 02:51:52 PM 45.8906 -113.1622 101° East 324 373 26,900  Level Salt Lake Center
Sun 02:52:54 PM 45.8733 -113.0347 101° East 325 374 26,900  Level Salt Lake Center
Sun 02:53:56 PM 45.8558 -112.9089 101° East 323 372 26,900  Level Salt Lake Center
Sun 02:54:58 PM 45.8386 -112.7819 101° East 324 373 26,900  Level Salt Lake Center
Sun 02:56:00 PM 45.8192 -112.6289 100° East 325 374 26,900  Level Salt Lake Center
Sun 02:57:02 PM 45.7992 -112.5031 103° East 326 375 26,900  Level Salt Lake Center
Sun 02:58:04 PM 45.7825 -112.3747 101° East 328 377 26,900 48 Level Salt Lake Center
Sun 02:59:07 PM 45.7639 -112.2458 102° East 330 380 27,000  Climbing Salt Lake Center
Sun 03:00:09 PM 45.7467 -112.1194 101° East 327 376 26,900 -48 Descending Salt Lake Center
Sun 03:01:11 PM 45.7281 -111.9942 102° East 325 374 26,900  Level Salt Lake Center
Sun 03:02:13 PM 45.7067 -111.8428 101° East 324 373 26,900  Level Salt Lake Center
Sun 03:03:15 PM 45.6883 -111.7183 102° East 322 371 26,900  Level Salt Lake Center
Sun 03:04:17 PM 45.6700 -111.5942 102° East 320 368 26,900  Level Salt Lake Center
Sun 03:05:19 PM 45.6514 -111.4719 102° East 319 367 26,900  Level Salt Lake Center
Sun 03:06:21 PM 45.6328 -111.3511 102° East 316 364 26,900  Level Salt Lake Center
Sun 03:07:23 PM 45.6111 -111.2067 102° East 315 362 26,900  Level Salt Lake Center
Sun 03:08:25 PM 45.5936 -111.0858 102° East 316 364 26,900  Level Salt Lake Center
Sun 03:09:27 PM 45.5747 -110.9647 103° East 316 364 26,900  Level Salt Lake Center
Sun 03:10:29 PM 45.5553 -110.8425 103° East 317 365 26,900  Level Salt Lake Center
Sun 03:11:31 PM 45.5369 -110.7214 102° East 317 365 26,900  Level Salt Lake Center
Sun 03:12:33 PM 45.5178 -110.5997 103° East 316 364 26,900  Level Salt Lake Center
Sun 03:13:35 PM 45.4978 -110.4706 102° East 313 360 26,900 48 Level Salt Lake Center
Sun 03:14:37 PM 45.4733 -110.3231 103° East 319 367 27,000  Climbing Salt Lake Center
Sun 03:15:39 PM 45.4544 -110.2028 103° East 315 362 26,900  Descending Salt Lake Center
Sun 03:16:41 PM 45.4342 -110.0808 103° East 317 365 27,000  Climbing Salt Lake Center
Sun 03:17:43 PM 45.4164 -109.9581 102° East 317 365 26,900 -48 Descending Salt Lake Center
Sun 03:18:45 PM 45.3961 -109.8367 103° East 316 364 26,900 48 Level Salt Lake Center
Sun 03:19:47 PM 45.3758 -109.7147 103° East 317 365 27,000  Climbing Salt Lake Center
Sun 03:20:49 PM 45.3497 -109.5706 104° East 316 364 26,900 -48 Descending Salt Lake Center
Sun 03:21:51 PM 45.3306 -109.4489 103° East 317 365 26,900  Level Salt Lake Center
Sun 03:22:54 PM 45.3108 -109.3264 103° East 319 367 26,900  Level Salt Lake Center
Sun 03:23:56 PM 45.2897 -109.2100 104° East 308 354 26,900  Level Salt Lake Center
Sun 03:24:58 PM 45.2694 -109.0917 104° East 308 354 26,900  Level Salt Lake Center
Sun 03:26:00 PM 45.2494 -108.9719 103° East 312 359 26,900  Level Salt Lake Center
Sun 03:27:02 PM 45.2233 -108.8281 104° East 313 360 26,900  Level Salt Lake Center
Sun 03:28:04 PM 45.2019 -108.7081 104° East 314 361 26,900  Level Salt Lake Center
Sun 03:29:06 PM 45.1806 -108.5875 104° East 314 361 26,900  Level Salt Lake Center
Sun 03:30:08 PM 45.1600 -108.4664 103° East 314 361 26,900  Level Salt Lake Center
Sun 03:31:10 PM 45.1378 -108.3458 105° East 315 362 26,900  Level Salt Lake Center
Sun 03:32:12 PM 45.1164 -108.2256 104° East 315 362 26,900 48 Level Salt Lake Center
Sun 03:33:14 PM 45.0942 -108.1064 105° East 312 359 27,000  Climbing Salt Lake Center
Sun 03:34:16 PM 45.0711 -107.9644 103° East 306 352 26,900 -48 Descending Salt Lake Center
Sun 03:35:18 PM 45.0478 -107.8439 105° East 312 359 26,900  Level Salt Lake Center
Sun 03:36:20 PM 45.0258 -107.7236 104° East 313 360 26,900  Level Salt Lake Center
Sun 03:37:22 PM 45.0033 -107.6044 105° East 312 359 26,900 3,360 Level Salt Lake Center
Sun 03:38:25 PM 44.9800 -107.4881 106° East 309 356 33,900 48 Climbing Salt Lake Center
Sun 03:39:26 PM 44.9575 -107.3697 105° East 310 357 27,000 -3,366 Descending Salt Lake Center
Sun 03:40:28 PM 44.9350 -107.2517 105° East 311 358 27,000 -48 Level Salt Lake Center
Sun 03:41:30 PM 44.9103 -107.1125 104° East 306 352 26,900 -48 Descending Salt Lake Center
Sun 03:42:32 PM 44.8869 -106.9950 106° East 310 357 26,900  Level Salt Lake Center
Sun 03:43:34 PM 44.8650 -106.8781 105° East 309 356 26,900  Level Salt Lake Center
Sun 03:44:37 PM 44.8417 -106.7619 106° East 309 356 26,900  Level Salt Lake Center
Sun 03:45:39 PM 44.8194 -106.6444 105° East 310 357 26,900  Level Salt Lake Center
Sun 03:46:41 PM 44.7956 -106.5275 106° East 311 358 26,900  Level Salt Lake Center
Sun 03:47:43 PM 44.7689 -106.3889 105° East 308 354 26,900  Level Salt Lake Center
Sun 03:48:41 PM 44.7539 -106.3206 107° East 308 354 26,900  Level Denver Center
Sun 03:49:43 PM 44.7217 -106.1569 105° East 311 358 26,900  Level Denver Center
Sun 03:50:49 PM 44.6986 -106.0400 105° East 309 356 26,900 -47 Level Salt Lake Center
Sun 03:51:51 PM 44.6719 -105.9125 106° East 305 351 26,800 -397 Descending Salt Lake Center
Sun 03:52:50 PM 44.6506 -105.8069 106° East 318 366 26,100 -774 Descending Denver Center
Sun 03:53:55 PM 44.6244 -105.6761 106° East 329 379 25,200 -780 Descending Salt Lake Center
Sun 03:54:53 PM 44.6031 -105.5828 108° East 334 384 24,500 -1,041 Descending Denver Center
Sun 03:55:56 PM 44.5653 -105.4014 106° East 347 399 23,100 -1,125 Descending Denver Center
Sun 03:57:01 PM 44.5375 -105.2636 106° East 349 402 22,100 -992 Descending Salt Lake Center
Sun 03:58:03 PM 44.5114 -105.1392 106° East 349 402 21,000 -1,041 Descending Salt Lake Center
Sun 03:59:02 PM 44.4844 -105.0156 107° East 349 402 20,000 -1,140 Descending Denver Center
Sun 04:00:04 PM 44.4531 -104.8700 107° East 349 402 18,700 -1,059 Descending Denver Center
Sun 04:01:18 PM 44.4256 -104.7456 107° East 350 403 17,600 -1,095 Descending Denver Center
Sun 04:02:21 PM 44.3917 -104.5839 106° East 342 394 16,200 -1,248 Descending Denver Center
Sun 04:03:23 PM 44.3603 -104.4447 107° East 339 390 15,000 -1,065 Descending Denver Center
Sun 04:04:25 PM 44.3350 -104.3281 107° East 335 386 14,000 -1,065 Descending Denver Center
Sun 04:05:27 PM 44.3061 -104.1972 107° East 327 376 12,800 -971 Descending Denver Center
Sun 04:06:10 PM 44.2847 -104.1267 113° Southeast 309 356 12,300 -757 Descending Denver Center
Sun 04:07:10 PM 44.2644 -104.0108 104° East 293 337 11,500 -942 Descending Denver Center
Sun 04:08:11 PM 44.2519 -103.9050 99° East 287 330 10,400 -1,041 Descending Denver Center
Sun 04:09:11 PM 44.2397 -103.8022 99° East 255 293 9,400 -893 Descending Denver Center
Sun 04:10:12 PM 44.2342 -103.7181 95° East 223 257 8,600 -787 Descending Denver Center
Sun 04:11:13 PM 44.2156 -103.6314 107° East 218 251 7,800 -694 Descending Denver Center
Sun 04:12:13 PM 44.1900 -103.5558 115° Southeast 228 262 7,200 -545 Descending Denver Center
Sun 04:13:14 PM 44.1586 -103.4700 117° Southeast 234 269 6,700 -496 Descending Denver Center
Sun 04:14:14 PM 44.1339 -103.3856 112° Southeast 230 265 6,200 -446 Descending Denver Center
Sun 04:15:15 PM 44.1169 -103.3136 108° East 205 236 5,800 -541 Descending Denver Center
Sun 04:16:16 PM 44.0958 -103.2397 112° Southeast 187 215 5,100 -595 Descending Denver Center
Sun 04:17:16 PM 44.0781 -103.1769 111° Southeast 178 205 4,600 -397 Descending Denver Center
Sun 04:18:17 PM 44.0742 -103.1072 94° East 172 198 4,300 -295 Descending Denver Center
Sun 04:20:00 PM 44.0453 -103.0574 90° East  Level Estimated
Sun 04:27:00 PM 44.0453 -103.0574 90° East  Level Estimated

Login

Don't have an account? Register now (free) for customized features, flight alerts, and more!